Terminal Aerodrome Forecast
Issued by NWS

Home | Current Version | Previous Version | Text Only | Print | Product List | Glossary On
Versions: 1 2 3 4 5 6 7 8 9 10 11 12 13 14 15 16 17 18
000
FTUS46 KPQR 302320
TAFONP
TAF
KONP 302320Z 0100/0124 34015G23KT P6SM FEW040
     FM010200 35010KT P6SM SKC
     FM010500 36007KT P6SM SKC
     FM010800 07003KT P6SM SKC
     FM011800 36010KT P6SM SKC
     FM012100 35013KT P6SM SKC=

USA.gov is the U.S. government's official web portal to all federal, state and local government web resources and services.